메인 페이지
METAR-TAF:

METAR-TAF

공항 :

부산광역, 대한민국

김해국제공항

위도: 35-11N, 경도: 128-56E, 고도: 4m

현재 날씨관측

예보는 28분 전, 11:00시(UTC)에 발표되었습니다.
4kt
온도 9°C
습도 43%
기압 1019 hPa
시정 10km 이상
1500m 미만 상공 구름 및 적란운 없음

METAR: RKPK 201100Z 27004KT CAVOK 09/M03 Q1019 NOSIG

시각: 20:28 (11:28 UTC)

예보

예보는 6 시간 28분 전, 05:00시(UTC)에 발표되었습니다.
예보 대상 시간: 20일 06시부터 21일 12시까지 (UTC)
서북서6kt
시정: 9000m
고도 3000ft 상공 구름 조금
고도 20000ft 상공 구름 보통
전환 중
20일 05시부터 20일 06시까지 (UTC)
남남서6kt
전환 중
20일 10시부터 20일 11시까지 (UTC)
서북서6kt

TAF: RKPK 200500Z 2006/2112 30006KT 9000 FEW030 SCT200 TNM01/2022Z TX08/2106Z BECMG 2005/2006 21006KT BECMG 2010/2011 30006KT

4,000개 이상의 공항 관측 자료 및 예보 (METAR 및 TAF 보고).

지도상에서 검색 가능한 기상관측소가 노란 점과 빨간 점으로 표시되어 있습니다.

기상관측소 명을 보려면 표시 위로 마우스를 이동하세요.

날씨 관측과 예보를 보려면 클릭하세요.

지도 변경 : 확대하려면 엑스 표시가 있는 녹색 버튼, 축소하려면 빼기 표시가 있는 녹색 버튼, 다음 페이지의 지도를 보려면 녹색 화살표를 클릭하세요.


METAR-TAF: